Kezdőlap
METAR-TAF:

METAR-TAF

Repülőterek :

Surat Thani, Thaiföld

földrajzi szélesség: 09-07N, földrajzi hosszúság: 099-21E, magasság: 10 m

Jelenlegi meteorológiai megfigyelések

A jelentés 1 órával és 7 perccel ezelõtt készült, 06:00 UTC
Délnyugati szél 8 kt, déli és nyugati között változik
Hőmérséklet 38°C
Páratartalom 38%
Légköri nyomás 1007 hPa
Látótávolság 10 km, vagy több
Kevés felhő 2000 lábon

METAR: VTSB 280600Z 23008KT 180V260 9999 FEW020 38/21 Q1007 NOSIG

Idő: 14:07 (07:07 UTC)

Előrejelzés

A jelentés 2 órával és 7 perccel ezelõtt készült, 05:00 UTC
Az előrejelzés 28-én 06 óra UTC és 29-én 06 óra UTC között érvényes
Délnyugati szél 5 kt
Látótávolság 10 km, vagy több
Kevés felhő 2000 lábon

TAF: VTSB 280500Z 2806/2906 23005KT 9999 FEW020

Meteorológiai megfigyelések és előrejelzések több, mint 4000 repülőtéren (METAR és TAF jelentéseket).

A térképen piros és sárga pontok jelzik az elérhető meteorológiai állomásokat.

Mozgassa az egeret a pont fölött, hogy megjelenjen az állomás neve.

Azután kattintson az időjárási megfigyelések és előrejelzések megtekintéséhez.

A térkép megváltoztatása: kattintson a fekete keresztel jelölt zöld gombra ráközelítéshez, a vonallal jelölt zöld gombra távolításhoz, vagy a zöld nyilakra a szomszédos térképek eléréséhez.


METAR-TAF: